Time;durP1;ratioP1;P1;durP2;ratioP2;P2;SDS_P1;SDS_P2;PMS_P1;PMS_P2;Temp;Humidity;BMP_temperature;BMP_pressure;BME280_temperature;BME280_humidity;BME280_pressure;Samples;Min_cycle;Max_cycle;Signal;HPM_P1;HPM_P2
2024/03/27 08:07:56;;;;;;;;;1.00;0.00;;;;;23.24;38.59;98343.63;5630225;23;46074;-81
2024/03/27 08:10:22;;;;;;;;;1.00;1.00;;;;;23.19;38.32;98331.13;4915827;28;45685;-81
2024/03/27 08:12:50;;;;;;;;;1.00;1.00;;;;;23.23;38.13;98342.84;4910097;28;45475;-83
2024/03/27 08:15:15;;;;;;;;;0.00;0.00;;;;;23.17;38.09;98334.03;4919487;28;45326;-83
2024/03/27 08:17:41;;;;;;;;;0.33;0.33;;;;;23.27;38.18;98351.09;4918504;28;47117;-80
2024/03/27 08:20:07;;;;;;;;;1.00;1.00;;;;;23.18;38.54;98346.25;4920017;28;45402;-81
2024/03/27 08:22:32;;;;;;;;;0.00;0.00;;;;;23.32;38.20;98343.19;4919368;28;45378;-82
2024/03/27 08:24:58;;;;;;;;;1.00;1.00;;;;;23.26;38.21;98337.03;4919753;28;45385;-82
2024/03/27 08:27:23;;;;;;;;;0.67;0.67;;;;;23.27;38.19;98332.53;4909078;28;47044;-82
2024/03/27 08:29:48;;;;;;;;;0.67;0.67;;;;;23.30;38.13;98337.34;4901165;28;45379;-82
2024/03/27 08:32:14;;;;;;;;;1.00;1.00;;;;;23.37;38.09;98345.09;4918825;28;45370;-82
2024/03/27 08:34:39;;;;;;;;;1.00;1.00;;;;;23.37;38.11;98358.34;4919883;28;45358;-81
2024/03/27 08:37:05;;;;;;;;;1.00;1.00;;;;;23.38;37.92;98359.97;4919207;28;46620;-82
2024/03/27 08:39:30;;;;;;;;;0.00;0.00;;;;;23.37;37.96;98363.66;4919551;28;45224;-82
2024/03/27 08:41:56;;;;;;;;;1.67;0.67;;;;;23.29;37.68;98352.44;4919584;28;45491;-82
2024/03/27 08:44:21;;;;;;;;;1.50;1.00;;;;;23.34;37.93;98361.53;4918526;28;45191;-82
2024/03/27 08:46:46;;;;;;;;;0.00;0.00;;;;;23.24;38.13;98348.94;4919573;28;45303;-82
2024/03/27 08:49:13;;;;;;;;;1.00;1.00;;;;;23.33;38.06;98367.88;4919429;28;45328;-82
2024/03/27 08:51:39;;;;;;;;;0.67;0.67;;;;;23.24;38.13;98357.69;4920276;28;45272;-82
2024/03/27 08:54:05;;;;;;;;;0.00;0.00;;;;;23.15;37.70;98349.41;4918978;28;45475;-82
2024/03/27 08:56:30;;;;;;;;;1.67;1.00;;;;;23.01;38.31;98329.59;4919440;28;45360;-81
2024/03/27 08:58:55;;;;;;;;;0.00;0.00;;;;;23.26;38.21;98386.66;4919278;28;45310;-82
2024/03/27 09:01:21;;;;;;;;;0.67;0.67;;;;;23.26;38.37;98384.78;4919418;28;45347;-82
2024/03/27 09:03:46;;;;;;;;;0.33;0.33;;;;;23.21;37.97;98376.78;4919553;28;45507;-82
2024/03/27 09:06:13;;;;;;;;;0.33;0.33;;;;;23.11;38.00;98366.06;4918391;28;46082;-81
2024/03/27 09:08:39;;;;;;;;;0.67;0.67;;;;;23.21;37.84;98379.44;4918699;28;45383;-82
2024/03/27 09:11:07;;;;;;;;;0.00;0.00;;;;;23.10;37.91;98365.25;4919045;28;45417;-83
2024/03/27 09:13:33;;;;;;;;;0.00;0.00;;;;;23.17;38.13;98375.66;4918901;28;45492;-83
2024/03/27 09:15:58;;;;;;;;;1.00;1.00;;;;;23.11;38.23;98360.75;4919418;28;45922;-83
2024/03/27 09:18:28;;;;;;;;;0.00;0.00;;;;;23.16;37.82;98382.03;4921337;28;45462;-82
2024/03/27 09:20:54;;;;;;;;;1.00;1.00;;;;;23.14;38.11;98379.59;4923230;28;45449;-82
2024/03/27 09:23:20;;;;;;;;;0.00;0.00;;;;;23.12;38.28;98376.41;4922237;28;45454;-82
2024/03/27 09:26:10;;;;;;;;;0.00;0.00;;;;;23.12;38.47;98372.94;4922413;28;45374;-81
2024/03/27 09:28:35;;;;;;;;;1.00;0.00;;;;;23.06;38.10;98367.59;4923629;28;45264;-82
2024/03/27 09:31:04;;;;;;;;;1.00;1.00;;;;;23.08;38.30;98372.66;4922806;28;45857;-83
2024/03/27 09:33:30;;;;;;;;;1.00;1.00;;;;;23.07;38.10;98371.03;4923517;28;45331;-82
2024/03/27 09:35:55;;;;;;;;;1.00;1.00;;;;;23.08;38.54;98375.31;4922062;28;46013;-81
2024/03/27 09:38:21;;;;;;;;;0.00;0.00;;;;;22.98;38.31;98359.28;4921883;28;45391;-82
2024/03/27 09:40:49;;;;;;;;;0.00;0.00;;;;;23.06;37.86;98370.25;4923265;28;45448;-82
2024/03/27 09:43:15;;;;;;;;;0.33;0.33;;;;;23.16;38.29;98382.03;4922725;28;45292;-82
2024/03/27 09:45:45;;;;;;;;;0.33;0.33;;;;;23.20;38.17;98377.00;4922768;28;47308;-82
2024/03/27 09:48:11;;;;;;;;;1.00;1.00;;;;;23.18;37.87;98388.69;4922647;28;45411;-82
2024/03/27 09:50:36;;;;;;;;;0.00;0.00;;;;;23.21;38.47;98381.28;4921927;28;45230;-82
2024/03/27 09:53:06;;;;;;;;;0.00;0.00;;;;;23.23;37.86;98387.13;4922651;28;45225;-82
2024/03/27 09:55:33;;;;;;;;;0.00;0.00;;;;;23.16;38.00;98371.41;4937130;28;47253;-82
2024/03/27 09:58:00;;;;;;;;;0.00;0.00;;;;;23.22;38.44;98377.56;4922180;28;45377;-82
2024/03/27 10:00:28;;;;;;;;;0.00;0.00;;;;;23.26;38.07;98386.66;4921336;28;45488;-82
2024/03/27 10:02:54;;;;;;;;;0.33;0.33;;;;;23.24;38.31;98370.16;4922102;28;45415;-82
2024/03/27 10:05:23;;;;;;;;;0.00;0.00;;;;;23.31;37.98;98373.44;4920965;28;45409;-82
2024/03/27 10:07:49;;;;;;;;;0.00;0.00;;;;;23.35;38.27;98373.72;4921264;28;45341;-82
2024/03/27 10:10:14;;;;;;;;;0.00;0.00;;;;;23.35;38.38;98369.22;4922637;28;45402;-83
2024/03/27 10:12:40;;;;;;;;;0.33;0.00;;;;;23.28;37.73;98361.47;4922946;28;45278;-83
2024/03/27 10:15:07;;;;;;;;;0.00;0.00;;;;;23.40;38.16;98379.88;4921648;28;46129;-82
2024/03/27 10:17:32;;;;;;;;;0.33;0.00;;;;;23.44;38.06;98380.19;4921460;28;45228;-82
2024/03/27 10:19:57;;;;;;;;;0.67;0.67;;;;;23.39;37.92;98367.66;4920915;28;45297;-82
2024/03/27 10:22:24;;;;;;;;;1.00;0.00;;;;;23.38;37.94;98367.91;4921647;28;45296;-82
2024/03/27 10:24:50;;;;;;;;;0.00;0.00;;;;;23.46;37.76;98383.41;4921747;28;47013;-82
2024/03/27 10:27:15;;;;;;;;;0.67;0.67;;;;;23.45;37.83;98373.03;4921518;28;45367;-82
2024/03/27 10:29:40;;;;;;;;;2.33;0.33;;;;;23.48;37.82;98359.25;4920992;28;45433;-82
2024/03/27 10:32:06;;;;;;;;;0.00;0.00;;;;;23.45;37.94;98365.06;4921738;28;45314;-82
2024/03/27 10:34:31;;;;;;;;;0.00;0.00;;;;;23.45;38.01;98360.56;4920913;28;46311;-83
2024/03/27 10:36:57;;;;;;;;;0.00;0.00;;;;;23.43;38.00;98361.84;4921804;28;45827;-82
2024/03/27 10:39:29;;;;;;;;;0.00;0.00;;;;;23.36;37.84;98335.53;4921541;28;45375;-82
2024/03/27 10:41:55;;;;;;;;;0.67;0.67;;;;;23.51;38.25;98364.09;4922795;28;45555;-83
2024/03/27 10:44:22;;;;;;;;;0.00;0.00;;;;;23.46;37.59;98351.56;4921897;28;46611;-83
2024/03/27 10:46:51;;;;;;;;;0.67;0.00;;;;;23.48;38.09;98361.91;4921659;28;45363;-83
2024/03/27 10:49:19;;;;;;;;;0.00;0.00;;;;;23.49;38.18;98369.66;4920526;28;45330;-83
2024/03/27 10:51:46;;;;;;;;;1.33;0.00;;;;;23.40;37.72;98352.53;4921276;28;45230;-83
2024/03/27 10:54:13;;;;;;;;;1.00;0.67;;;;;23.47;38.04;98355.78;4921549;28;45406;-83
2024/03/27 10:56:38;;;;;;;;;0.00;0.00;;;;;23.47;38.12;98360.31;4936776;28;45361;-83
2024/03/27 10:59:04;;;;;;;;;0.00;0.00;;;;;23.47;37.98;98365.63;4921202;28;45381;-83
2024/03/27 11:01:29;;;;;;;;;0.00;0.00;;;;;23.45;37.88;98355.25;4920486;28;45370;-82
2024/03/27 11:03:58;;;;;;;;;0.67;0.67;;;;;23.46;37.94;98361.38;4920281;28;45627;-82
2024/03/27 11:06:24;;;;;;;;;0.00;0.00;;;;;23.39;37.98;98351.75;4920827;28;45430;-82
2024/03/27 11:08:49;;;;;;;;;0.00;0.00;;;;;23.44;37.91;98348.38;4921489;28;45489;-82
2024/03/27 11:11:15;;;;;;;;;0.33;0.33;;;;;23.43;37.89;98346.75;4920586;28;45443;-82
2024/03/27 11:13:50;;;;;;;;;1.00;1.00;;;;;23.33;37.94;98330.72;4920032;28;45571;-82
2024/03/27 11:16:21;;;;;;;;;0.00;0.00;;;;;23.41;37.75;98335.59;4919697;28;45416;-82
2024/03/27 11:18:46;;;;;;;;;0.00;0.00;;;;;23.40;38.13;98344.59;4919915;28;45508;-82
2024/03/27 11:21:12;;;;;;;;;0.00;0.00;;;;;23.39;37.67;98349.09;4920125;28;45354;-82
2024/03/27 11:23:40;;;;;;;;;0.00;0.00;;;;;23.39;38.21;98350.97;4918662;28;46411;-81
2024/03/27 11:26:07;;;;;;;;;0.00;0.00;;;;;23.34;37.88;98340.31;4920376;28;45419;-82
2024/03/27 11:28:32;;;;;;;;;0.00;0.00;;;;;23.37;38.03;98345.88;4934446;28;45344;-82
2024/03/27 11:30:58;;;;;;;;;0.67;0.00;;;;;22.57;38.22;98217.22;4920036;28;45399;-82
2024/03/27 11:33:26;;;;;;;;;0.00;0.00;;;;;23.21;37.89;98315.78;4919455;28;46375;-82
2024/03/27 11:35:52;;;;;;;;;0.00;0.00;;;;;23.32;38.00;98340.53;4919364;28;45301;-82
2024/03/27 11:38:20;;;;;;;;;0.00;0.00;;;;;23.33;37.73;98333.38;4919574;28;45231;-82
2024/03/27 11:40:55;;;;;;;;;0.00;0.00;;;;;23.33;37.95;98326.22;4919363;28;45632;-81
2024/03/27 11:43:21;;;;;;;;;0.33;0.33;;;;;23.32;37.70;98332.56;4918526;28;45387;-76
2024/03/27 11:45:48;;;;;;;;;1.00;0.67;;;;;23.31;37.74;98327.53;4918787;28;45377;-76
2024/03/27 11:48:13;;;;;;;;;0.00;0.00;;;;;23.22;37.77;98322.66;4918419;28;45384;-79
2024/03/27 11:50:40;;;;;;;;;0.00;0.00;;;;;23.18;38.19;98308.31;4918765;28;45458;-80
2024/03/27 11:53:09;;;;;;;;;0.67;0.67;;;;;23.23;38.14;98312.84;4918857;28;45991;-81
2024/03/27 11:55:35;;;;;;;;;1.67;0.33;;;;;23.29;38.33;98328.56;4919171;28;45278;-81
2024/03/27 11:58:00;;;;;;;;;1.00;1.00;;;;;23.20;38.26;98308.84;4918891;28;45334;-81
2024/03/27 12:00:25;;;;;;;;;0.67;0.67;;;;;23.29;38.27;98322.47;4919090;28;45305;-80
2024/03/27 12:02:51;;;;;;;;;0.33;0.00;;;;;23.26;38.55;98320.31;4918549;28;45524;-81
2024/03/27 12:05:18;;;;;;;;;0.00;0.00;;;;;23.24;38.51;98312.59;4918061;28;45598;-81
2024/03/27 12:07:44;;;;;;;;;0.67;0.67;;;;;23.19;38.46;98307.25;4919575;28;45385;-79
2024/03/27 12:10:09;;;;;;;;;2.00;2.00;;;;;23.24;38.20;98317.91;4919986;28;45395;-83
2024/03/27 12:12:36;;;;;;;;;1.00;1.00;;;;;23.27;38.18;98320.06;4919535;28;46323;-84
2024/03/27 12:15:03;;;;;;;;;0.67;0.67;;;;;23.24;38.71;98311.78;4919382;28;45362;-81
2024/03/27 12:17:33;;;;;;;;;1.00;1.00;;;;;23.27;38.48;98306.00;4918482;28;45442;-80
2024/03/27 12:20:03;;;;;;;;;1.00;1.00;;;;;23.24;38.68;98312.59;4918467;28;45513;-81
2024/03/27 12:22:29;;;;;;;;;0.33;0.33;;;;;23.25;38.27;98310.75;4918087;28;46140;-79
2024/03/27 12:24:55;;;;;;;;;0.33;0.33;;;;;22.92;38.09;98273.56;4918126;28;45204;-79
2024/03/27 12:27:22;;;;;;;;;0.00;0.00;;;;;23.20;38.38;98306.19;4918941;28;45358;-80
2024/03/27 12:29:50;;;;;;;;;0.00;0.00;;;;;23.18;37.82;98303.00;4918863;28;45315;-82
2024/03/27 12:32:28;;;;;;;;;0.67;0.67;;;;;23.18;38.35;98292.41;4917311;28;45443;-79
2024/03/27 12:34:55;;;;;;;;;0.00;0.00;;;;;23.17;38.70;98274.88;4917884;28;45245;-79
2024/03/27 12:37:21;;;;;;;;;1.00;1.00;;;;;23.07;38.48;98263.13;4916987;28;45361;-79
2024/03/27 12:39:47;;;;;;;;;0.00;0.00;;;;;23.13;38.67;98276.44;4932940;28;45346;-79
2024/03/27 12:42:13;;;;;;;;;0.00;0.00;;;;;23.15;38.07;98293.69;4918003;28;46324;-79
2024/03/27 12:44:39;;;;;;;;;1.00;1.00;;;;;23.13;38.39;98295.81;4918037;28;45386;-79
2024/03/27 12:47:05;;;;;;;;;1.00;1.00;;;;;23.10;38.69;98268.97;4917701;28;45348;-79
2024/03/27 12:49:30;;;;;;;;;0.00;0.00;;;;;23.02;38.65;98262.25;4918117;28;45438;-79
2024/03/27 12:51:57;;;;;;;;;0.67;0.00;;;;;23.10;38.65;98280.38;4917928;28;45340;-79
2024/03/27 12:54:23;;;;;;;;;0.00;0.00;;;;;23.12;38.52;98288.09;4917433;28;45414;-81
2024/03/27 12:56:48;;;;;;;;;0.00;0.00;;;;;23.12;38.73;98290.72;4921044;28;45458;-81
2024/03/27 12:59:14;;;;;;;;;0.00;0.00;;;;;23.11;38.56;98291.81;4922004;28;45344;-80
2024/03/27 13:01:39;;;;;;;;;0.33;0.33;;;;;23.05;38.42;98272.38;4921682;28;46206;-81
2024/03/27 13:04:05;;;;;;;;;0.67;0.67;;;;;23.00;38.46;98286.38;4921702;28;45458;-80
2024/03/27 13:06:30;;;;;;;;;0.00;0.00;;;;;23.05;38.48;98289.09;4920989;28;45362;-80
2024/03/27 13:08:55;;;;;;;;;0.00;0.00;;;;;23.00;38.45;98274.97;4921089;28;45382;-81
2024/03/27 13:11:21;;;;;;;;;0.33;0.33;;;;;23.05;37.90;98289.09;4921594;28;47271;-81
2024/03/27 13:13:47;;;;;;;;;0.00;0.00;;;;;23.05;38.31;98282.97;4921736;28;45362;-80
2024/03/27 13:16:12;;;;;;;;;1.00;0.00;;;;;23.04;38.14;98289.31;4935753;28;45458;-80
2024/03/27 13:18:38;;;;;;;;;0.33;0.33;;;;;23.03;38.03;98279.78;4921329;28;45458;-80
2024/03/27 13:21:06;;;;;;;;;0.00;0.00;;;;;22.92;38.47;98276.22;4920975;28;45385;-80
2024/03/27 13:23:31;;;;;;;;;1.00;1.00;;;;;23.00;38.65;98289.03;4935608;28;45763;-81
2024/03/27 13:25:57;;;;;;;;;0.67;0.00;;;;;22.99;38.08;98287.44;4921192;28;45248;-80
2024/03/27 13:28:23;;;;;;;;;0.00;0.00;;;;;22.91;38.48;98274.59;4920910;28;45460;-81
2024/03/27 13:30:48;;;;;;;;;1.00;0.00;;;;;22.88;38.52;98270.59;4921342;28;46062;-81
2024/03/27 13:33:13;;;;;;;;;0.00;0.00;;;;;22.96;38.24;98280.78;4921402;28;45335;-80
2024/03/27 13:35:39;;;;;;;;;0.00;0.00;;;;;22.89;38.04;98282.00;4921865;28;45285;-80
2024/03/27 13:38:04;;;;;;;;;0.00;0.00;;;;;22.93;38.50;98281.25;4921690;28;45215;-80
2024/03/27 13:40:29;;;;;;;;;0.00;0.00;;;;;22.90;38.28;98292.34;4921345;28;46305;-80
2024/03/27 13:42:55;;;;;;;;;0.00;0.00;;;;;22.92;37.90;98297.44;4920873;28;45268;-81
2024/03/27 13:45:20;;;;;;;;;0.67;0.67;;;;;22.87;38.03;98292.06;4921371;28;45554;-81
2024/03/27 13:47:52;;;;;;;;;0.00;0.00;;;;;22.90;38.34;98300.31;4921575;28;45370;-80
2024/03/27 13:50:19;;;;;;;;;0.00;0.00;;;;;22.90;38.20;98294.22;4921505;28;46080;-80
2024/03/27 13:52:44;;;;;;;;;0.67;0.67;;;;;22.89;37.92;98295.28;4921632;28;45403;-81
2024/03/27 13:55:09;;;;;;;;;0.00;0.00;;;;;22.88;38.19;98299.75;4921170;28;45309;-81
2024/03/27 13:57:35;;;;;;;;;0.00;0.00;;;;;22.78;37.97;98289.84;4921999;28;45693;-80
2024/03/27 14:00:00;;;;;;;;;1.00;1.00;;;;;22.82;38.18;98309.50;4922204;28;45972;-80
2024/03/27 14:02:25;;;;;;;;;0.00;0.00;;;;;22.84;38.23;98309.28;4921911;28;45402;-80
2024/03/27 14:04:51;;;;;;;;;0.67;0.67;;;;;22.85;38.49;98313.50;4921702;28;45360;-80
2024/03/27 14:07:16;;;;;;;;;0.00;0.00;;;;;22.83;38.18;98308.47;4920435;28;45410;-81
2024/03/27 14:09:41;;;;;;;;;2.00;1.00;;;;;22.77;38.51;98301.50;4920280;28;45967;-80
2024/03/27 14:12:07;;;;;;;;;0.00;0.00;;;;;22.73;37.80;98303.84;4920294;28;45299;-80
2024/03/27 14:14:32;;;;;;;;;0.00;0.00;;;;;22.71;38.09;98305.16;4920904;28;45337;-80
2024/03/27 14:16:57;;;;;;;;;0.33;0.33;;;;;22.77;38.36;98303.38;4920313;28;45290;-81
2024/03/27 14:19:23;;;;;;;;;0.00;0.00;;;;;22.77;38.02;98309.44;4920539;28;46773;-80
2024/03/27 14:21:48;;;;;;;;;0.00;0.00;;;;;22.79;38.19;98312.69;4920332;28;45346;-80
2024/03/27 14:24:14;;;;;;;;;0.00;0.00;;;;;22.80;37.90;98308.16;4920305;28;45350;-80
2024/03/27 14:26:40;;;;;;;;;2.00;0.00;;;;;22.80;37.93;98298.34;4919665;28;45341;-80
2024/03/27 14:29:05;;;;;;;;;0.00;0.00;;;;;22.79;37.81;98278.22;4919486;28;46225;-80
2024/03/27 14:31:30;;;;;;;;;0.00;0.00;;;;;22.80;38.29;98284.28;4920320;28;45290;-80
2024/03/27 14:33:55;;;;;;;;;2.00;0.67;;;;;22.79;37.80;98272.09;4918886;28;45306;-80
2024/03/27 14:36:21;;;;;;;;;2.33;0.00;;;;;22.77;37.81;98272.34;4919588;28;45629;-80
2024/03/27 14:38:46;;;;;;;;;0.00;0.00;;;;;22.78;38.05;98266.00;4919588;28;46139;-80
2024/03/27 14:41:11;;;;;;;;;0.00;0.00;;;;;22.77;38.40;98261.72;4919130;28;45356;-80
2024/03/27 14:43:37;;;;;;;;;0.00;0.00;;;;;22.78;38.06;98267.84;4921273;28;45376;-80
2024/03/27 14:46:02;;;;;;;;;0.67;0.67;;;;;22.73;38.38;98244.72;4920129;28;45345;-80
2024/03/27 14:48:27;;;;;;;;;0.00;0.00;;;;;22.72;37.90;98266.97;4919814;28;45499;-79
2024/03/27 14:50:53;;;;;;;;;0.00;0.00;;;;;22.70;38.30;98234.63;4919762;28;45386;-80
2024/03/27 14:53:18;;;;;;;;;2.33;0.00;;;;;22.76;37.95;98225.69;4919683;28;45422;-80
2024/03/27 14:55:43;;;;;;;;;0.67;0.67;;;;;22.71;38.21;98194.63;4920753;28;45331;-80
2024/03/27 14:58:09;;;;;;;;;1.00;1.00;;;;;22.75;38.37;98194.91;4919622;28;46159;-81
2024/03/27 15:00:34;;;;;;;;;0.67;0.67;;;;;22.72;38.01;98200.72;4919747;28;45274;-80
2024/03/27 15:02:59;;;;;;;;;0.00;0.00;;;;;22.74;37.81;98196.75;4919283;28;45330;-80
2024/03/27 15:05:25;;;;;;;;;0.00;0.00;;;;;22.58;38.13;98182.53;4919461;28;45232;-80
2024/03/27 15:07:51;;;;;;;;;0.00;0.00;;;;;22.74;38.07;98217.97;4918906;28;47225;-80
2024/03/27 15:10:17;;;;;;;;;0.00;0.00;;;;;22.64;38.50;98207.22;4919150;28;45407;-80
2024/03/27 15:12:42;;;;;;;;;0.00;0.00;;;;;22.46;37.77;98172.06;4919667;28;45521;-81
2024/03/27 15:15:08;;;;;;;;;0.00;0.00;;;;;22.76;38.27;98224.88;4919142;28;45394;-80
2024/03/27 15:17:33;;;;;;;;;0.00;0.00;;;;;22.74;37.97;98230.44;4919426;28;46262;-80
2024/03/27 15:19:59;;;;;;;;;0.00;0.00;;;;;22.73;38.35;98231.47;4919220;28;45394;-79
2024/03/27 15:22:24;;;;;;;;;1.00;0.00;;;;;22.73;38.38;98227.00;4919458;28;45369;-79
2024/03/27 15:24:49;;;;;;;;;0.00;0.00;;;;;22.68;38.27;98226.09;4918884;28;45645;-79
2024/03/27 15:27:14;;;;;;;;;0.00;0.00;;;;;22.70;37.87;98221.38;4919129;28;46063;-81
2024/03/27 15:29:40;;;;;;;;;0.00;0.00;;;;;22.73;38.40;98221.69;4919171;28;45393;-80
2024/03/27 15:32:06;;;;;;;;;0.00;0.00;;;;;22.73;38.33;98210.28;4919908;28;45346;-80
2024/03/27 15:34:31;;;;;;;;;0.00;0.00;;;;;22.74;37.98;98206.59;4919161;28;45506;-80
2024/03/27 15:36:56;;;;;;;;;0.00;0.00;;;;;22.71;38.14;98205.22;4918928;28;46028;-80
2024/03/27 15:39:22;;;;;;;;;2.00;0.00;;;;;22.71;38.38;98213.19;4918586;28;45406;-80
2024/03/27 15:41:47;;;;;;;;;0.00;0.00;;;;;22.69;38.34;98201.19;4920409;28;45380;-80
2024/03/27 15:44:12;;;;;;;;;0.00;0.00;;;;;22.73;37.82;98215.56;4919399;28;45378;-80
2024/03/27 15:46:38;;;;;;;;;0.00;0.00;;;;;22.74;38.40;98217.97;4918912;28;46052;-80
2024/03/27 15:49:04;;;;;;;;;0.00;0.00;;;;;22.74;38.06;98225.16;4918895;28;45448;-80
2024/03/27 15:51:29;;;;;;;;;0.00;0.00;;;;;22.65;38.05;98202.72;4918938;28;45602;-80
2024/03/27 15:53:55;;;;;;;;;0.00;0.00;;;;;22.67;38.02;98205.94;4917935;28;45572;-80
2024/03/27 15:56:20;;;;;;;;;0.00;0.00;;;;;22.74;38.08;98225.91;4918743;28;46244;-80
2024/03/27 15:58:46;;;;;;;;;2.33;0.33;;;;;22.73;38.25;98228.84;4920429;28;45373;-80
2024/03/27 16:01:11;;;;;;;;;0.00;0.00;;;;;22.72;38.20;98219.25;4921080;28;45396;-80
2024/03/27 16:03:36;;;;;;;;;0.00;0.00;;;;;22.72;38.04;98209.47;4919894;28;45356;-80
2024/03/27 16:06:02;;;;;;;;;0.00;0.00;;;;;22.72;38.08;98208.66;4920923;28;46055;-80
2024/03/27 16:08:28;;;;;;;;;1.00;0.00;;;;;22.52;37.77;98181.69;4920297;28;45869;-79
2024/03/27 16:10:56;;;;;;;;;0.00;0.00;;;;;22.71;38.19;98210.53;4921081;28;45392;-80
2024/03/27 16:13:21;;;;;;;;;0.00;0.00;;;;;22.58;37.77;98193.16;4920729;28;45243;-80
2024/03/27 16:15:47;;;;;;;;;0.00;0.00;;;;;22.71;37.99;98215.03;4920157;28;45283;-79
2024/03/27 16:18:12;;;;;;;;;0.00;0.00;;;;;22.66;37.99;98199.84;4919724;28;45325;-80
2024/03/27 16:20:37;;;;;;;;;0.00;0.00;;;;;22.70;38.02;98200.16;4919699;28;45273;-80
2024/03/27 16:23:03;;;;;;;;;0.00;0.00;;;;;22.55;38.50;98200.78;4919297;28;45525;-81
2024/03/27 16:25:29;;;;;;;;;0.00;0.00;;;;;22.69;37.93;98220.53;4919484;28;46257;-79
2024/03/27 16:27:54;;;;;;;;;0.00;0.00;;;;;22.69;37.87;98217.09;4919156;28;45340;-80
2024/03/27 16:30:20;;;;;;;;;2.00;0.00;;;;;22.68;38.15;98218.16;4921793;28;45334;-80
2024/03/27 16:32:45;;;;;;;;;0.00;0.00;;;;;22.62;38.19;98196.88;4921834;28;45423;-80
2024/03/27 16:35:11;;;;;;;;;0.00;0.00;;;;;22.66;38.55;98207.81;4936196;28;47244;-80
2024/03/27 16:37:36;;;;;;;;;0.00;0.00;;;;;22.66;38.22;98193.75;4921048;28;45353;-80
2024/03/27 16:40:02;;;;;;;;;0.00;0.00;;;;;22.66;38.05;98191.09;4921920;28;45322;-80
2024/03/27 16:42:28;;;;;;;;;0.00;0.00;;;;;22.65;38.46;98184.19;4921606;28;45461;-80
2024/03/27 16:44:53;;;;;;;;;0.00;0.00;;;;;22.64;38.20;98191.31;4935904;28;47351;-82
2024/03/27 16:47:18;;;;;;;;;0.33;0.33;;;;;22.64;38.13;98180.72;4921271;28;45392;-80
2024/03/27 16:49:46;;;;;;;;;0.00;0.00;;;;;22.63;37.96;98174.66;4921416;28;45490;-81
2024/03/27 16:52:12;;;;;;;;;0.00;0.00;;;;;22.58;38.13;98171.13;4920985;28;45370;-80
2024/03/27 16:54:37;;;;;;;;;0.00;0.00;;;;;22.63;38.28;98168.53;4920783;28;46220;-82
2024/03/27 16:57:02;;;;;;;;;0.00;0.00;;;;;22.63;38.03;98171.19;4919879;28;45993;-81
2024/03/27 16:59:28;;;;;;;;;0.00;0.00;;;;;22.59;38.54;98159.47;4921284;28;45355;-80
2024/03/27 17:01:53;;;;;;;;;0.00;0.00;;;;;22.58;38.21;98157.88;4921303;28;45370;-82
2024/03/27 17:04:19;;;;;;;;;0.00;0.00;;;;;22.47;38.49;98154.31;4936065;28;47810;-83
2024/03/27 17:06:44;;;;;;;;;0.00;0.00;;;;;22.52;38.24;98157.03;4921260;28;45360;-84
2024/03/27 17:09:10;;;;;;;;;0.00;0.00;;;;;22.59;38.39;98160.28;4921133;28;45441;-81
2024/03/27 17:11:35;;;;;;;;;0.00;0.00;;;;;22.61;38.07;98168.78;4921025;28;45342;-83
2024/03/27 17:14:01;;;;;;;;;0.00;0.00;;;;;22.61;38.42;98160.81;4921742;28;47431;-83
2024/03/27 17:16:26;;;;;;;;;0.00;0.00;;;;;22.51;38.10;98142.16;4925437;28;45354;-83
2024/03/27 17:18:52;;;;;;;;;0.00;0.00;;;;;22.54;38.31;98152.28;4924366;28;45360;-83
2024/03/27 17:21:17;;;;;;;;;0.00;0.00;;;;;22.61;38.35;98157.41;4922769;28;45434;-83
2024/03/27 17:23:46;;;;;;;;;0.00;0.00;;;;;22.57;38.13;98161.56;4925747;28;46319;-83
2024/03/27 17:26:12;;;;;;;;;0.00;0.00;;;;;22.59;38.17;98160.28;4926374;28;45268;-83
2024/03/27 17:28:37;;;;;;;;;0.00;0.00;;;;;22.59;38.57;98164.78;4926445;28;45300;-83
2024/03/27 17:31:03;;;;;;;;;0.00;0.00;;;;;22.59;38.55;98160.28;4924088;28;45301;-83
2024/03/27 17:33:28;;;;;;;;;1.33;0.00;;;;;22.56;38.52;98160.00;4924343;28;46920;-83
2024/03/27 17:35:54;;;;;;;;;0.00;0.00;;;;;22.49;38.17;98150.38;4923138;28;45225;-83
2024/03/27 17:38:19;;;;;;;;;0.67;0.00;;;;;22.46;38.87;98147.41;4923276;28;45305;-84
2024/03/27 17:40:45;;;;;;;;;0.00;0.00;;;;;22.57;38.30;98165.03;4921368;28;45276;-84
2024/03/27 17:43:10;;;;;;;;;0.00;0.00;;;;;22.57;38.42;98161.56;4920712;28;45802;-79
2024/03/27 17:45:36;;;;;;;;;0.33;0.33;;;;;22.58;38.69;98163.19;4920489;28;45359;-80
2024/03/27 17:48:02;;;;;;;;;0.00;0.00;;;;;22.43;38.31;98140.00;4920752;28;45363;-80
2024/03/27 17:50:27;;;;;;;;;0.00;0.00;;;;;22.49;38.60;98146.94;4920314;28;45366;-79
2024/03/27 17:52:53;;;;;;;;;0.00;0.00;;;;;22.50;38.37;98156.47;4935266;28;48683;-77
2024/03/27 17:55:18;;;;;;;;;0.00;0.00;;;;;22.43;38.79;98132.03;4920320;28;45397;-84
2024/03/27 17:57:43;;;;;;;;;0.00;0.00;;;;;22.46;38.38;98137.63;4920864;28;45311;-80
2024/03/27 18:00:09;;;;;;;;;0.00;0.00;;;;;22.47;38.86;98135.78;4920489;28;45431;-78
2024/03/27 18:02:36;;;;;;;;;0.00;0.00;;;;;22.44;39.01;98131.78;4920348;28;45408;-78
2024/03/27 18:05:04;;;;;;;;;0.00;0.00;;;;;22.56;38.43;98136.94;4919855;28;45343;-82
2024/03/27 18:07:29;;;;;;;;;0.00;0.00;;;;;22.55;38.72;98130.03;4919920;28;45302;-83
2024/03/27 18:09:55;;;;;;;;;0.33;0.00;;;;;22.56;38.68;98125.53;4920547;28;45327;-82
2024/03/27 18:12:20;;;;;;;;;0.00;0.00;;;;;22.58;39.03;98118.16;4920190;28;45457;-83
2024/03/27 18:14:46;;;;;;;;;0.00;0.00;;;;;22.59;39.17;98114.44;4920070;28;45441;-81
2024/03/27 18:17:12;;;;;;;;;0.00;0.00;;;;;22.58;38.83;98115.50;4920222;28;45413;-82
2024/03/27 18:19:37;;;;;;;;;1.00;0.00;;;;;22.52;39.04;98115.44;4919693;28;45497;-85
2024/03/27 18:22:03;;;;;;;;;0.00;0.00;;;;;22.59;38.69;98109.94;4920060;28;47282;-80
2024/03/27 18:24:29;;;;;;;;;1.00;0.00;;;;;22.48;38.80;98092.34;4919958;28;45394;-80
2024/03/27 18:26:54;;;;;;;;;1.00;1.00;;;;;22.58;38.83;98115.50;4919935;28;45303;-77
2024/03/27 18:29:20;;;;;;;;;0.00;0.00;;;;;22.57;39.32;98122.63;4920027;28;45282;-82
2024/03/27 18:31:45;;;;;;;;;0.00;0.00;;;;;22.56;39.39;98112.31;4919899;28;47095;-82
2024/03/27 18:34:10;;;;;;;;;3.00;0.00;;;;;22.57;39.42;98125.28;4919410;28;45354;-83
2024/03/27 18:36:36;;;;;;;;;0.00;0.00;;;;;22.52;39.58;98114.63;4918443;28;45364;-83
2024/03/27 18:39:02;;;;;;;;;0.00;0.00;;;;;22.56;39.23;98128.97;4920076;28;45363;-77
2024/03/27 18:41:27;;;;;;;;;0.00;0.00;;;;;22.57;39.35;98124.47;4919687;28;47155;-79
2024/03/27 18:43:52;;;;;;;;;0.00;0.00;;;;;22.56;39.16;98126.31;4919505;28;45319;-79
2024/03/27 18:46:18;;;;;;;;;0.00;0.00;;;;;22.56;38.98;98126.31;4919465;28;45278;-79
2024/03/27 18:48:43;;;;;;;;;0.00;0.00;;;;;22.57;39.41;98124.47;4919640;28;45228;-78
2024/03/27 18:51:09;;;;;;;;;0.00;0.00;;;;;22.44;38.99;98104.47;4918594;28;46121;-77
2024/03/27 18:53:34;;;;;;;;;0.00;0.00;;;;;22.52;39.03;98123.41;4919486;28;45374;-79
2024/03/27 18:55:59;;;;;;;;;1.00;1.00;;;;;22.57;39.21;98137.72;4919490;28;45443;-77
2024/03/27 18:58:25;;;;;;;;;0.33;0.33;;;;;22.56;39.54;98120.25;4919470;28;45311;-76
2024/03/27 19:00:50;;;;;;;;;0.00;0.00;;;;;22.57;39.21;98133.22;4919350;28;46334;-75
2024/03/27 19:03:16;;;;;;;;;0.00;0.00;;;;;22.56;38.78;98123.69;4918975;28;45477;-75
2024/03/27 19:05:44;;;;;;;;;0.00;0.00;;;;;22.56;38.59;98125.53;4919408;28;45397;-75
2024/03/27 19:08:09;;;;;;;;;0.00;0.00;;;;;22.55;39.02;98110.69;4919234;28;45481;-75
2024/03/27 19:10:37;;;;;;;;;0.00;0.00;;;;;22.54;38.87;98117.84;4919142;28;46042;-73
2024/03/27 19:13:03;;;;;;;;;1.33;0.00;;;;;22.54;38.76;98117.03;4919167;28;45384;-75
2024/03/27 19:15:28;;;;;;;;;0.00;0.00;;;;;22.54;39.10;98124.97;4919246;28;45308;-75
2024/03/27 19:17:53;;;;;;;;;0.00;0.00;;;;;22.51;39.11;98124.44;4918816;28;45297;-75
2024/03/27 19:20:20;;;;;;;;;0.00;0.00;;;;;22.50;38.97;98124.69;4919126;28;45423;-75
2024/03/27 19:22:45;;;;;;;;;0.00;0.00;;;;;22.50;39.12;98119.38;4919206;28;45446;-74
2024/03/27 19:25:10;;;;;;;;;0.00;0.00;;;;;22.49;39.25;98120.44;4919087;28;45331;-75
2024/03/27 19:27:36;;;;;;;;;0.00;0.00;;;;;22.48;39.00;98122.28;4919076;28;45390;-75
2024/03/27 19:30:01;;;;;;;;;0.00;0.00;;;;;22.47;38.81;98131.28;4917744;28;47237;-75
2024/03/27 19:32:26;;;;;;;;;2.00;0.00;;;;;22.42;38.95;98106.59;4918445;28;45352;-75
2024/03/27 19:34:52;;;;;;;;;0.00;0.00;;;;;22.36;39.10;98103.88;4916733;28;45452;-88